Time,TemperatureF,DewpointF,PressureIn,WindDirection,WindDirectionDegrees,WindSpeedMPH,WindSpeedGustMPH,Humidity,HourlyPrecipIn,Conditions,Clouds,dailyrainin,SoftwareType,DateUTC
2013-11-23 00:13:00,35.1,34.1,30.18,NW,315,5.3,-999.0,96,-99.99,,,0.00,Acu-Link.com,2013-11-23 06:13:00,
2013-11-23 00:29:00,35.1,34.1,30.18,NE,45,6.3,-999.0,96,-99.99,,,0.00,Acu-Link.com,2013-11-23 06:29:00,
2013-11-23 00:44:00,34.9,33.9,30.17,NNW,337,2.7,-999.0,96,-99.99,,,0.00,Acu-Link.com,2013-11-23 06:44:00,
2013-11-23 00:59:00,35.1,34.1,30.18,North,0,1.1,-999.0,96,-99.99,,,0.00,Acu-Link.com,2013-11-23 06:59:00,
2013-11-23 01:14:00,35.1,34.1,30.18,ENE,67,5.3,-999.0,96,-99.99,,,0.00,Acu-Link.com,2013-11-23 07:14:00,
2013-11-23 01:29:00,35.1,34.1,30.18,NNE,22,6.8,-999.0,96,-99.99,,,0.00,Acu-Link.com,2013-11-23 07:29:00,
2013-11-23 01:44:00,35.2,34.2,30.18,NE,45,6.3,-999.0,96,-99.99,,,0.00,Acu-Link.com,2013-11-23 07:44:00,
2013-11-23 02:00:00,35.2,33.9,30.18,ENE,67,2.7,-999.0,95,-99.99,,,0.00,Acu-Link.com,2013-11-23 08:00:00,
2013-11-23 02:15:00,35.2,33.9,30.18,NNE,22,7.8,-999.0,95,-99.99,,,0.00,Acu-Link.com,2013-11-23 08:15:00,
2013-11-23 02:30:00,35.2,33.9,30.18,NNE,22,2.7,-999.0,95,-99.99,,,0.00,Acu-Link.com,2013-11-23 08:30:00,
2013-11-23 02:45:00,35.4,34.1,30.19,ENE,67,4.2,-999.0,95,-99.99,,,0.00,Acu-Link.com,2013-11-23 08:45:00,
2013-11-23 03:00:00,35.4,34.1,30.19,NNE,22,7.8,-999.0,95,-99.99,,,0.00,Acu-Link.com,2013-11-23 09:00:00,
2013-11-23 03:16:00,35.4,34.1,30.19,NNE,22,5.8,-999.0,95,-99.99,,,0.00,Acu-Link.com,2013-11-23 09:16:00,
2013-11-23 03:31:00,35.6,34.3,30.19,ENE,67,8.9,-999.0,95,-99.99,,,0.00,Acu-Link.com,2013-11-23 09:31:00,
2013-11-23 03:46:00,35.6,34.0,30.19,NE,45,2.2,-999.0,94,-99.99,,,0.00,Acu-Link.com,2013-11-23 09:46:00,
2013-11-23 04:01:00,35.8,34.2,30.19,NE,45,5.8,-999.0,94,-99.99,,,0.00,Acu-Link.com,2013-11-23 10:01:00,
2013-11-23 04:16:00,35.6,34.3,30.20,NW,315,4.7,-999.0,95,-99.99,,,0.00,Acu-Link.com,2013-11-23 10:16:00,
2013-11-23 04:31:00,35.4,34.1,30.19,NNE,22,4.2,-999.0,95,-99.99,,,0.00,Acu-Link.com,2013-11-23 10:31:00,
2013-11-23 04:47:00,35.4,34.1,30.19,South,180,1.7,-999.0,95,-99.99,,,0.00,Acu-Link.com,2013-11-23 10:47:00,
2013-11-23 05:02:00,35.2,34.2,30.20,NNW,337,5.3,-999.0,96,-99.99,,,0.00,Acu-Link.com,2013-11-23 11:02:00,
2013-11-23 05:17:00,35.2,34.2,30.20,NW,315,4.7,-999.0,96,-99.99,,,0.01,Acu-Link.com,2013-11-23 11:17:00,
2013-11-23 05:33:00,35.2,34.2,30.20,NE,45,5.3,-999.0,96,-99.99,,,0.01,Acu-Link.com,2013-11-23 11:33:00,
2013-11-23 05:48:00,35.2,34.2,30.20,ESE,112,5.8,-999.0,96,-99.99,,,0.01,Acu-Link.com,2013-11-23 11:48:00,
2013-11-23 06:03:00,35.2,34.2,30.20,North,0,8.9,-999.0,96,-99.99,,,0.02,Acu-Link.com,2013-11-23 12:03:00,
2013-11-23 06:18:00,35.2,34.2,30.21,NE,45,7.8,-999.0,96,-99.99,,,0.02,Acu-Link.com,2013-11-23 12:18:00,
2013-11-23 06:33:00,35.2,34.2,30.22,NNE,22,6.3,-999.0,96,-99.99,,,0.02,Acu-Link.com,2013-11-23 12:33:00,
2013-11-23 06:48:00,35.2,34.2,30.22,NE,45,9.4,-999.0,96,-99.99,,,0.02,Acu-Link.com,2013-11-23 12:48:00,
2013-11-23 07:04:00,35.2,34.2,30.21,NE,45,8.3,-999.0,96,-99.99,,,0.02,Acu-Link.com,2013-11-23 13:04:00,
2013-11-23 07:19:00,35.2,34.2,30.22,NNE,22,10.9,-999.0,96,-99.99,,,0.02,Acu-Link.com,2013-11-23 13:19:00,
2013-11-23 07:34:00,35.2,34.2,30.24,NNE,22,7.3,-999.0,96,-99.99,,,0.02,Acu-Link.com,2013-11-23 13:34:00,
2013-11-23 07:49:00,35.4,34.4,30.25,NE,45,5.3,-999.0,96,-99.99,,,0.02,Acu-Link.com,2013-11-23 13:49:00,
2013-11-23 08:04:00,35.6,34.6,30.24,NE,45,10.9,-999.0,96,-99.99,,,0.02,Acu-Link.com,2013-11-23 14:04:00,
2013-11-23 08:19:00,35.6,34.3,30.25,NE,45,8.3,-999.0,95,-99.99,,,0.02,Acu-Link.com,2013-11-23 14:19:00,
2013-11-23 08:34:00,35.8,34.5,30.26,NNE,22,7.8,-999.0,95,-99.99,,,0.02,Acu-Link.com,2013-11-23 14:34:00,
2013-11-23 08:49:00,36.0,34.7,30.27,NE,45,3.2,-999.0,95,-99.99,,,0.02,Acu-Link.com,2013-11-23 14:49:00,
2013-11-23 09:04:00,36.1,34.8,30.28,West,270,0.0,-999.0,95,-99.99,,,0.02,Acu-Link.com,2013-11-23 15:04:00,
2013-11-23 09:20:00,36.0,34.7,30.28,NNE,22,4.7,-999.0,95,-99.99,,,0.02,Acu-Link.com,2013-11-23 15:20:00,
2013-11-23 09:35:00,36.0,35.0,30.28,NNE,22,5.3,-999.0,96,-99.99,,,0.03,Acu-Link.com,2013-11-23 15:35:00,
2013-11-23 09:50:00,36.1,35.1,30.29,North,0,4.2,-999.0,96,-99.99,,,0.03,Acu-Link.com,2013-11-23 15:50:00,
2013-11-23 10:05:00,36.1,35.1,30.29,NNE,22,7.8,-999.0,96,-99.99,,,0.03,Acu-Link.com,2013-11-23 16:05:00,
2013-11-23 10:20:00,36.3,35.3,30.28,North,0,0.0,-999.0,96,-99.99,,,0.03,Acu-Link.com,2013-11-23 16:20:00,
2013-11-23 10:35:00,36.7,35.7,30.28,NNE,22,8.9,-999.0,96,-99.99,,,0.04,Acu-Link.com,2013-11-23 16:35:00,
2013-11-23 10:50:00,36.7,35.4,30.28,NNW,337,2.7,-999.0,95,-99.99,,,0.04,Acu-Link.com,2013-11-23 16:50:00,
2013-11-23 11:05:00,37.0,35.4,30.28,NNE,22,7.8,-999.0,94,-99.99,,,0.04,Acu-Link.com,2013-11-23 17:05:00,
2013-11-23 11:21:00,37.4,35.6,30.27,NE,45,4.7,-999.0,93,-99.99,,,0.04,Acu-Link.com,2013-11-23 17:21:00,
2013-11-23 11:36:00,37.8,35.7,30.27,NNE,22,3.7,-999.0,92,-99.99,,,0.04,Acu-Link.com,2013-11-23 17:36:00,
2013-11-23 11:51:00,37.8,35.7,30.25,NE,45,7.3,-999.0,92,-99.99,,,0.04,Acu-Link.com,2013-11-23 17:51:00,
2013-11-23 12:06:00,37.8,35.7,30.25,NNE,22,4.2,-999.0,92,-99.99,,,0.04,Acu-Link.com,2013-11-23 18:06:00,
2013-11-23 12:21:00,38.3,36.2,30.24,North,0,3.2,-999.0,92,-99.99,,,0.04,Acu-Link.com,2013-11-23 18:21:00,
2013-11-23 12:36:00,38.5,36.1,30.23,NNW,337,8.3,-999.0,91,-99.99,,,0.04,Acu-Link.com,2013-11-23 18:36:00,
2013-11-23 12:52:00,39.4,37.0,30.23,NNE,22,7.3,-999.0,91,-99.99,,,0.04,Acu-Link.com,2013-11-23 18:52:00,
2013-11-23 13:07:00,39.6,36.6,30.24,NE,45,8.9,-999.0,89,-99.99,,,0.04,Acu-Link.com,2013-11-23 19:07:00,
2013-11-23 13:22:00,40.3,37.3,30.24,East,90,3.7,-999.0,89,-99.99,,,0.04,Acu-Link.com,2013-11-23 19:22:00,
2013-11-23 13:37:00,40.5,37.2,30.23,NE,45,7.3,-999.0,88,-99.99,,,0.04,Acu-Link.com,2013-11-23 19:37:00,
2013-11-23 13:52:00,40.8,37.2,30.23,ENE,67,7.3,-999.0,87,-99.99,,,0.04,Acu-Link.com,2013-11-23 19:52:00,
2013-11-23 14:07:00,41.2,37.3,30.24,NE,45,2.7,-999.0,86,-99.99,,,0.04,Acu-Link.com,2013-11-23 20:07:00,
2013-11-23 14:22:00,41.2,37.0,30.23,North,0,10.9,-999.0,85,-99.99,,,0.04,Acu-Link.com,2013-11-23 20:22:00,
2013-11-23 14:37:00,41.0,36.2,30.23,NNW,337,3.7,-999.0,83,-99.99,,,0.04,Acu-Link.com,2013-11-23 20:37:00,
2013-11-23 14:53:00,40.8,36.0,30.23,NNE,22,2.7,-999.0,83,-99.99,,,0.04,Acu-Link.com,2013-11-23 20:53:00,
2013-11-23 15:08:00,40.8,35.7,30.23,NE,45,4.7,-999.0,82,-99.99,,,0.04,Acu-Link.com,2013-11-23 21:08:00,
2013-11-23 15:23:00,40.8,35.7,30.22,NNE,22,2.2,-999.0,82,-99.99,,,0.04,Acu-Link.com,2013-11-23 21:23:00,
2013-11-23 15:38:00,41.2,36.1,30.22,NNE,22,6.8,-999.0,82,-99.99,,,0.04,Acu-Link.com,2013-11-23 21:38:00,
2013-11-23 15:53:00,41.7,36.3,30.23,NNE,22,2.7,-999.0,81,-99.99,,,0.04,Acu-Link.com,2013-11-23 21:53:00,
2013-11-23 16:08:00,42.1,35.7,30.23,NNE,22,4.7,-999.0,78,-99.99,,,0.04,Acu-Link.com,2013-11-23 22:08:00,
2013-11-23 16:23:00,42.3,35.6,30.23,NNE,22,6.3,-999.0,77,-99.99,,,0.04,Acu-Link.com,2013-11-23 22:23:00,
2013-11-23 16:39:00,42.3,35.3,30.23,North,0,4.2,-999.0,76,-99.99,,,0.04,Acu-Link.com,2013-11-23 22:39:00,
2013-11-23 16:54:00,42.3,34.6,30.23,NNW,337,9.4,-999.0,74,-99.99,,,0.04,Acu-Link.com,2013-11-23 22:54:00,
2013-11-23 17:09:00,41.7,34.4,30.24,NNE,22,5.8,-999.0,75,-99.99,,,0.04,Acu-Link.com,2013-11-23 23:09:00,
2013-11-23 17:24:00,41.4,34.4,30.25,NE,45,10.4,-999.0,76,-99.99,,,0.04,Acu-Link.com,2013-11-23 23:24:00,
2013-11-23 17:39:00,41.0,33.7,30.25,NE,45,8.3,-999.0,75,-99.99,,,0.04,Acu-Link.com,2013-11-23 23:39:00,
2013-11-23 17:54:00,40.6,33.6,30.25,NE,45,7.8,-999.0,76,-99.99,,,0.04,Acu-Link.com,2013-11-23 23:54:00,
2013-11-23 18:10:00,40.6,33.6,30.24,North,0,5.3,-999.0,76,-99.99,,,0.04,Acu-Link.com,2013-11-24 00:10:00,
2013-11-23 18:25:00,40.6,33.3,30.23,North,0,8.9,-999.0,75,-99.99,,,0.04,Acu-Link.com,2013-11-24 00:25:00,
2013-11-23 18:40:00,40.6,33.0,30.24,NNE,22,8.9,-999.0,74,-99.99,,,0.05,Acu-Link.com,2013-11-24 00:40:00,
2013-11-23 18:55:00,40.6,33.0,30.24,NNE,22,7.8,-999.0,74,-99.99,,,0.05,Acu-Link.com,2013-11-24 00:55:00,
2013-11-23 19:10:00,40.3,32.7,30.24,ENE,67,4.2,-999.0,74,-99.99,,,0.05,Acu-Link.com,2013-11-24 01:10:00,
2013-11-23 19:26:00,40.1,32.5,30.25,NNE,22,4.7,-999.0,74,-99.99,,,0.05,Acu-Link.com,2013-11-24 01:26:00,
2013-11-23 19:41:00,40.1,32.5,30.25,NNE,22,5.8,-999.0,74,-99.99,,,0.05,Acu-Link.com,2013-11-24 01:41:00,
2013-11-23 19:56:00,40.1,32.2,30.25,NE,45,7.3,-999.0,73,-99.99,,,0.05,Acu-Link.com,2013-11-24 01:56:00,
2013-11-23 20:11:00,40.1,31.5,30.26,NW,315,5.8,-999.0,71,-99.99,,,0.05,Acu-Link.com,2013-11-24 02:11:00,
2013-11-23 20:26:00,39.9,31.3,30.26,NNE,22,4.2,-999.0,71,-99.99,,,0.05,Acu-Link.com,2013-11-24 02:26:00,
2013-11-23 20:41:00,39.7,30.7,30.26,NNE,22,6.3,-999.0,70,-99.99,,,0.05,Acu-Link.com,2013-11-24 02:41:00,
2013-11-23 20:56:00,39.4,30.8,30.26,East,90,4.7,-999.0,71,-99.99,,,0.05,Acu-Link.com,2013-11-24 02:56:00,
2013-11-23 21:11:00,39.4,30.1,30.25,NE,45,6.3,-999.0,69,-99.99,,,0.05,Acu-Link.com,2013-11-24 03:11:00,
2013-11-23 21:27:00,39.2,29.5,30.26,NNE,22,6.3,-999.0,68,-99.99,,,0.05,Acu-Link.com,2013-11-24 03:27:00,
2013-11-23 21:42:00,39.2,28.8,30.27,WNW,292,2.7,-999.0,66,-99.99,,,0.05,Acu-Link.com,2013-11-24 03:42:00,
2013-11-23 21:57:00,39.0,28.2,30.28,West,270,5.8,-999.0,65,-99.99,,,0.05,Acu-Link.com,2013-11-24 03:57:00,
2013-11-23 22:12:00,38.5,28.1,30.28,NE,45,4.7,-999.0,66,-99.99,,,0.05,Acu-Link.com,2013-11-24 04:12:00,
2013-11-23 22:27:00,38.1,27.4,30.28,NNE,22,5.3,-999.0,65,-99.99,,,0.05,Acu-Link.com,2013-11-24 04:27:00,
2013-11-23 22:42:00,38.1,26.3,30.28,NNE,22,6.3,-999.0,62,-99.99,,,0.05,Acu-Link.com,2013-11-24 04:42:00,
2013-11-23 22:58:00,37.9,25.7,30.28,NE,45,9.9,-999.0,61,-99.99,,,0.05,Acu-Link.com,2013-11-24 04:58:00,
2013-11-23 23:13:00,37.6,25.8,30.28,NNE,22,6.8,-999.0,62,-99.99,,,0.05,Acu-Link.com,2013-11-24 05:13:00,
2013-11-23 23:28:00,37.4,26.4,30.28,NE,45,6.3,-999.0,64,-99.99,,,0.05,Acu-Link.com,2013-11-24 05:28:00,
2013-11-23 23:43:00,36.9,26.3,30.27,NNE,22,6.3,-999.0,65,-99.99,,,0.05,Acu-Link.com,2013-11-24 05:43:00,
2013-11-23 23:58:00,36.9,26.3,30.27,NNE,22,5.8,-999.0,65,-99.99,,,0.05,Acu-Link.com,2013-11-24 05:58:00,